Arcola, Missouri
Current Conditions -  °F | °C
As of 3:52 AM on Friday 31 Oct 2014 (Local Time) from KSGF Reporting Station
Clear Clear  
Wind Chill: 42°   Ceiling: Unl
Heat Index: 48°   Visibility: 10mi
Dew Point: 40°   Wind: 16mph
Humidity: 74%   Direction: 330°NNW
Pressure: 30.15"   Gusts: NA
Location:  37.55°N, 93.88°W
Report Text: KSGF 310852Z 33014KT 10SM CLR 09/04 A3015 RMK AO2 SLP208 T00890044 51012
Loading
Personal Weather Stations






























Interactive Weather Map
Tropical Storm Tracking
New forecast layout! Learn more

10-Day Weather Forecast

Advertisements
Track Severe Weather on mobile